createdAt,value
2023-03-18T00:01:39.944Z,14.82
2023-03-18T00:04:12.709Z,14.95
2023-03-18T00:06:45.055Z,25.80
2023-03-18T00:09:17.359Z,13.15
2023-03-18T00:11:50.477Z,20.65
2023-03-18T00:14:23.219Z,16.02
2023-03-18T00:16:55.816Z,28.25
2023-03-18T00:19:28.155Z,20.33
2023-03-18T00:22:01.060Z,25.65
2023-03-18T00:24:33.507Z,33.80
2023-03-18T00:27:06.584Z,18.92
2023-03-18T00:29:39.554Z,22.67
2023-03-18T00:32:14.029Z,28.80
2023-03-18T00:34:46.692Z,21.70
2023-03-18T00:37:29.609Z,25.88
2023-03-18T00:40:07.218Z,23.75
2023-03-18T00:42:46.760Z,25.88
2023-03-18T00:45:19.371Z,17.10
2023-03-18T00:47:54.198Z,33.38
2023-03-18T00:50:27.817Z,44.80
2023-03-18T00:53:00.994Z,42.25
2023-03-18T00:55:34.422Z,43.13
2023-03-18T00:58:08.306Z,34.97
2023-03-18T01:00:41.388Z,42.72
2023-03-18T01:03:14.209Z,40.67
2023-03-18T01:05:46.514Z,28.17
2023-03-18T01:08:19.640Z,27.60
2023-03-18T01:10:51.996Z,26.23
2023-03-18T01:13:25.281Z,16.40
2023-03-18T01:15:57.649Z,17.40
2023-03-18T01:18:30.132Z,25.52
2023-03-18T01:21:02.747Z,20.20
2023-03-18T01:23:39.688Z,15.40
2023-03-18T01:26:11.964Z,15.32
2023-03-18T01:28:48.462Z,13.73
2023-03-18T01:31:21.193Z,11.55
2023-03-18T01:33:54.152Z,15.82
2023-03-18T01:36:27.646Z,17.08
2023-03-18T01:39:10.458Z,18.05
2023-03-18T01:41:44.531Z,18.25
2023-03-18T01:44:24.028Z,25.80
2023-03-18T01:46:58.100Z,11.85
2023-03-18T01:49:35.805Z,14.13
2023-03-18T01:52:12.538Z,17.65
2023-03-18T01:54:49.219Z,19.42
2023-03-18T01:57:23.440Z,18.75
2023-03-18T01:59:58.654Z,17.92
2023-03-18T02:02:33.269Z,20.00
2023-03-18T02:05:09.307Z,22.05
2023-03-18T02:07:43.529Z,15.48
2023-03-18T02:10:19.677Z,21.67
2023-03-18T02:12:57.473Z,26.60
2023-03-18T02:15:45.508Z,22.80
2023-03-18T02:18:20.908Z,16.85
2023-03-18T02:21:07.578Z,15.57
2023-03-18T02:23:52.196Z,9.95
2023-03-18T02:26:31.969Z,18.15
2023-03-18T02:29:08.278Z,10.75
2023-03-18T02:31:50.807Z,10.32
2023-03-18T02:34:29.764Z,15.65
2023-03-18T02:37:03.187Z,18.88
2023-03-18T02:39:36.514Z,38.17
2023-03-18T02:42:11.649Z,44.47
2023-03-18T02:44:46.761Z,22.45
2023-03-18T02:47:44.021Z,24.02
2023-03-18T02:50:16.901Z,52.38
2023-03-18T02:52:49.207Z,53.75
2023-03-18T02:55:21.825Z,60.08
2023-03-18T02:57:54.179Z,67.85
2023-03-18T03:00:27.184Z,66.65
2023-03-18T03:02:59.994Z,68.10
2023-03-18T03:05:34.491Z,78.68
2023-03-18T03:08:06.990Z,72.03
2023-03-18T03:10:44.347Z,39.67
2023-03-18T03:13:17.478Z,44.72
2023-03-18T03:15:51.661Z,40.67
2023-03-18T03:18:24.778Z,46.78
2023-03-18T03:20:57.296Z,52.97
2023-03-18T03:23:29.626Z,51.17
2023-03-18T03:26:03.439Z,52.63
2023-03-18T03:28:35.756Z,35.05
2023-03-18T03:31:09.224Z,36.67
2023-03-18T03:33:43.032Z,30.25
2023-03-18T03:36:17.096Z,25.17
2023-03-18T03:38:49.801Z,33.67
2023-03-18T03:41:22.111Z,27.77
2023-03-18T03:43:54.858Z,26.02
2023-03-18T03:46:27.913Z,34.90
2023-03-18T03:49:00.517Z,28.17
2023-03-18T03:51:32.838Z,29.08
2023-03-18T03:54:05.267Z,35.15
2023-03-18T03:56:37.685Z,32.42
2023-03-18T03:59:09.995Z,25.58
2023-03-18T04:02:03.003Z,29.17
2023-03-18T04:04:35.720Z,21.30
2023-03-18T04:07:08.660Z,32.72
2023-03-18T04:09:40.981Z,19.55
2023-03-18T04:12:14.056Z,40.63
2023-03-18T04:14:48.039Z,49.47
2023-03-18T04:17:21.575Z,34.17
2023-03-18T04:19:53.936Z,41.35
2023-03-18T04:22:27.406Z,40.95
2023-03-18T04:24:59.833Z,27.67
2023-03-18T04:27:33.337Z,21.55
2023-03-18T04:30:12.724Z,20.88
2023-03-18T04:33:06.125Z,22.42
2023-03-18T04:35:38.711Z,22.98
2023-03-18T04:38:11.282Z,12.52
2023-03-18T04:40:44.891Z,17.67
2023-03-18T04:43:17.328Z,21.65
2023-03-18T04:45:52.231Z,10.65
2023-03-18T04:48:26.838Z,6.68
2023-03-18T04:51:02.055Z,4.65
2023-03-18T04:53:36.697Z,4.25
2023-03-18T04:56:09.562Z,11.70
2023-03-18T05:01:27.716Z,16.70
2023-03-18T05:04:00.904Z,7.80
2023-03-18T05:06:42.509Z,11.48
2023-03-18T05:09:18.735Z,6.72
2023-03-18T05:11:51.512Z,13.38
2023-03-18T05:14:32.263Z,10.32
2023-03-18T05:17:05.894Z,18.50
2023-03-18T05:19:42.867Z,16.67
2023-03-18T05:22:21.701Z,11.98
2023-03-18T05:24:58.615Z,25.75
2023-03-18T05:27:32.910Z,24.38
2023-03-18T05:30:18.337Z,12.95
2023-03-18T05:32:58.983Z,16.25
2023-03-18T05:35:45.270Z,24.02
2023-03-18T05:38:18.039Z,17.75
2023-03-18T05:40:50.749Z,20.25
2023-03-18T05:43:28.480Z,23.17
2023-03-18T05:46:04.441Z,25.45
2023-03-18T05:48:47.106Z,17.23
2023-03-18T05:51:20.736Z,20.90
2023-03-18T05:53:53.260Z,22.10
2023-03-18T05:59:07.883Z,19.90
2023-03-18T06:01:48.715Z,13.77
2023-03-18T06:04:21.319Z,12.60
2023-03-18T06:06:54.626Z,15.10
2023-03-18T06:09:27.108Z,12.50
2023-03-18T06:11:59.812Z,16.27
2023-03-18T06:14:32.393Z,18.15
2023-03-18T06:17:07.716Z,15.57
2023-03-18T06:19:39.961Z,18.08
2023-03-18T06:22:16.101Z,14.60
2023-03-18T06:24:48.575Z,20.75
2023-03-18T06:27:23.125Z,21.70
2023-03-18T06:30:02.383Z,24.33
2023-03-18T06:32:35.406Z,29.58
2023-03-18T06:35:09.758Z,26.45
2023-03-18T06:37:44.210Z,25.02
2023-03-18T06:40:16.934Z,27.23
2023-03-18T06:42:49.881Z,27.95
2023-03-18T06:45:51.945Z,22.17
2023-03-18T06:48:24.770Z,27.83
2023-03-18T06:50:57.708Z,28.90
2023-03-18T06:53:59.323Z,21.35
2023-03-18T06:56:36.901Z,29.63
2023-03-18T06:59:18.535Z,21.42
2023-03-18T07:01:50.969Z,17.38
2023-03-18T07:04:25.498Z,26.13
2023-03-18T07:07:00.009Z,16.27
2023-03-18T07:09:33.572Z,25.02
2023-03-18T07:12:06.571Z,26.33
2023-03-18T07:14:39.232Z,20.38
2023-03-18T07:17:11.963Z,17.13
2023-03-18T07:19:46.265Z,20.90
2023-03-18T07:22:18.662Z,23.65
2023-03-18T07:24:53.014Z,26.80
2023-03-18T07:27:25.417Z,21.80
2023-03-18T07:29:57.794Z,25.02
2023-03-18T07:32:30.957Z,22.77
2023-03-18T07:35:03.823Z,19.92
2023-03-18T07:37:36.446Z,18.13
2023-03-18T07:40:11.414Z,23.60
2023-03-18T07:42:43.741Z,24.02
2023-03-18T07:45:16.177Z,25.60
2023-03-18T07:47:48.487Z,35.13
2023-03-18T07:50:21.199Z,30.67
2023-03-18T07:52:53.510Z,34.78
2023-03-18T07:55:26.481Z,30.25
2023-03-18T07:57:59.037Z,30.38
2023-03-18T08:00:31.557Z,24.20
2023-03-18T08:03:03.922Z,27.90
2023-03-18T08:05:36.235Z,24.80
2023-03-18T08:08:09.151Z,34.17
2023-03-18T08:10:42.284Z,27.95
2023-03-18T08:13:14.584Z,26.00
2023-03-18T08:15:47.602Z,20.38
2023-03-18T08:18:19.919Z,31.65
2023-03-18T08:20:52.990Z,31.83
2023-03-18T08:23:25.303Z,22.85
2023-03-18T08:25:58.769Z,22.60
2023-03-18T08:28:31.144Z,26.45
2023-03-18T08:31:04.250Z,27.38
2023-03-18T08:33:36.617Z,22.55
2023-03-18T08:36:09.253Z,28.88
2023-03-18T08:38:41.643Z,24.95
2023-03-18T08:41:16.292Z,25.50
2023-03-18T08:43:48.639Z,16.55
2023-03-18T08:46:21.312Z,30.52
2023-03-18T08:48:53.948Z,19.88
2023-03-18T08:51:26.412Z,25.70
2023-03-18T08:53:59.044Z,26.77
2023-03-18T08:56:33.628Z,28.88
2023-03-18T08:59:06.384Z,24.55
2023-03-18T09:01:39.163Z,32.42
2023-03-18T09:04:12.765Z,26.63
2023-03-18T09:06:45.162Z,28.63
2023-03-18T09:09:17.519Z,26.38
2023-03-18T09:11:50.662Z,27.05
2023-03-18T09:14:23.287Z,23.13
2023-03-18T09:16:55.646Z,36.05
2023-03-18T09:19:28.255Z,28.40
2023-03-18T09:22:00.927Z,27.92
2023-03-18T09:24:34.290Z,34.28
2023-03-18T09:27:07.480Z,22.40
2023-03-18T09:29:40.053Z,26.92
2023-03-18T09:32:12.519Z,26.30
2023-03-18T09:34:46.683Z,25.48
2023-03-18T09:37:19.583Z,21.85
2023-03-18T09:39:52.031Z,22.80
2023-03-18T09:42:41.287Z,21.05
2023-03-18T09:45:20.080Z,14.65
2023-03-18T09:48:17.882Z,15.67
2023-03-18T09:51:00.101Z,14.55
2023-03-18T09:53:43.832Z,15.75
2023-03-18T09:56:20.832Z,9.35
2023-03-18T09:58:59.118Z,12.63
2023-03-18T10:01:35.672Z,10.10
2023-03-18T10:04:17.576Z,7.00
2023-03-18T10:06:56.338Z,15.90
2023-03-18T10:09:34.277Z,10.68
2023-03-18T10:12:16.528Z,9.32
2023-03-18T10:14:58.111Z,11.80
2023-03-18T10:17:35.089Z,11.57
2023-03-18T10:20:16.826Z,9.18
2023-03-18T10:23:04.639Z,11.45
2023-03-18T10:25:42.336Z,9.95
2023-03-18T10:28:50.008Z,7.10
2023-03-18T10:31:31.278Z,8.73
2023-03-18T10:34:11.079Z,6.40
2023-03-18T10:39:25.226Z,6.13
2023-03-18T10:42:03.392Z,7.63
2023-03-18T10:44:41.296Z,7.90
2023-03-18T10:47:19.310Z,5.03
2023-03-18T10:50:05.385Z,6.30
2023-03-18T10:52:46.969Z,5.00
2023-03-18T10:55:26.731Z,5.30
2023-03-18T11:00:33.863Z,3.45
2023-03-18T11:03:18.259Z,3.92
2023-03-18T11:05:53.157Z,3.85
2023-03-18T11:08:33.712Z,5.00
2023-03-18T11:11:27.643Z,5.78
2023-03-18T11:14:02.139Z,4.35
2023-03-18T11:16:38.580Z,10.20
2023-03-18T11:19:28.281Z,4.47
2023-03-18T11:24:41.632Z,3.58
2023-03-18T11:27:33.353Z,4.72
2023-03-18T11:30:32.763Z,6.35
2023-03-18T11:33:13.927Z,6.40
2023-03-18T11:35:51.735Z,4.75
2023-03-18T11:38:27.887Z,5.93
2023-03-18T11:41:08.066Z,7.13
2023-03-18T11:43:55.290Z,4.35
2023-03-18T11:46:31.883Z,5.03
2023-03-18T11:49:05.542Z,3.33
2023-03-18T11:51:45.111Z,3.63
2023-03-18T11:54:41.258Z,3.60
2023-03-18T11:57:17.806Z,5.72
2023-03-18T12:00:04.326Z,4.40
2023-03-18T12:02:57.288Z,4.30
2023-03-18T12:05:51.344Z,3.40
2023-03-18T12:08:35.627Z,5.18
2023-03-18T12:11:12.341Z,5.70
2023-03-18T12:13:52.498Z,4.05
2023-03-18T12:16:40.675Z,4.63
2023-03-18T12:19:33.476Z,5.28
2023-03-18T12:22:23.255Z,4.07
2023-03-18T12:27:47.454Z,3.17
2023-03-18T12:30:38.713Z,5.90
2023-03-18T12:33:27.751Z,6.93
2023-03-18T12:36:12.149Z,4.90
2023-03-18T12:39:17.480Z,3.00
2023-03-18T12:42:01.566Z,7.75
2023-03-18T12:44:50.022Z,5.22
2023-03-18T12:47:27.258Z,4.38
2023-03-18T12:50:03.427Z,6.25
2023-03-18T12:52:40.504Z,3.15
2023-03-18T12:55:17.121Z,4.15
2023-03-18T12:57:56.336Z,6.80
2023-03-18T13:00:32.313Z,9.82
2023-03-18T13:03:21.754Z,10.68
2023-03-18T13:06:00.202Z,3.00
2023-03-18T13:09:05.629Z,5.73
2023-03-18T13:11:54.158Z,4.13
2023-03-18T13:14:33.090Z,4.75
2023-03-18T13:17:09.772Z,7.90
2023-03-18T13:19:43.274Z,4.90
2023-03-18T13:22:36.419Z,5.68
2023-03-18T13:25:18.237Z,5.72
2023-03-18T13:28:22.295Z,3.10
2023-03-18T13:31:08.799Z,7.15
2023-03-18T13:34:10.093Z,4.15
2023-03-18T13:37:13.238Z,5.40
2023-03-18T13:40:09.899Z,3.15
2023-03-18T13:42:43.830Z,4.32
2023-03-18T13:45:27.283Z,5.22
2023-03-18T13:48:05.578Z,4.72
2023-03-18T13:50:39.933Z,4.57
2023-03-18T13:53:22.641Z,2.95
2023-03-18T13:56:04.026Z,6.65
2023-03-18T13:58:44.502Z,4.05
2023-03-18T14:01:33.396Z,3.88
2023-03-18T14:04:31.447Z,5.15
2023-03-18T14:07:15.010Z,8.20
2023-03-18T14:09:53.513Z,3.53
2023-03-18T14:12:39.580Z,3.92
2023-03-18T14:15:37.815Z,5.03
2023-03-18T14:18:27.276Z,4.30
2023-03-18T14:21:03.484Z,3.90
2023-03-18T14:23:39.223Z,4.20
2023-03-18T14:26:20.509Z,4.30
2023-03-18T14:29:02.454Z,4.45
2023-03-18T14:31:55.578Z,3.42
2023-03-18T14:34:31.843Z,4.63
2023-03-18T14:37:20.368Z,3.78
2023-03-18T14:39:55.503Z,1.92
2023-03-18T14:42:48.715Z,4.53
2023-03-18T14:45:25.766Z,4.30
2023-03-18T14:48:00.426Z,8.55
2023-03-18T14:50:40.366Z,6.10
2023-03-18T14:53:21.736Z,3.10
2023-03-18T14:55:57.156Z,3.78
2023-03-18T14:58:30.168Z,3.47
2023-03-18T15:01:06.757Z,4.18
2023-03-18T15:03:43.283Z,3.38
2023-03-18T15:06:18.699Z,5.88
2023-03-18T15:09:01.366Z,3.83
2023-03-18T15:11:38.963Z,2.47
2023-03-18T15:14:12.605Z,4.13
2023-03-18T15:16:48.851Z,3.75
2023-03-18T15:19:22.486Z,4.55
2023-03-18T15:21:57.538Z,6.30
2023-03-18T15:24:30.608Z,2.40
2023-03-18T15:27:06.426Z,5.25
2023-03-18T15:29:48.342Z,3.65
2023-03-18T15:32:25.672Z,2.90
2023-03-18T15:35:07.771Z,5.20
2023-03-18T15:37:42.130Z,3.30
2023-03-18T15:40:29.424Z,4.70
2023-03-18T15:43:16.569Z,4.00
2023-03-18T15:45:54.110Z,5.78
2023-03-18T15:48:34.258Z,3.33
2023-03-18T15:51:22.014Z,4.72
2023-03-18T15:53:57.027Z,5.25
2023-03-18T15:56:32.096Z,4.68
2023-03-18T15:59:08.253Z,13.80
2023-03-18T16:01:40.541Z,3.83
2023-03-18T16:04:15.721Z,3.90
2023-03-18T16:06:48.449Z,3.92
2023-03-18T16:09:22.962Z,3.70
2023-03-18T16:11:58.868Z,6.13
2023-03-18T16:14:37.089Z,3.35
2023-03-18T16:17:11.931Z,2.53
2023-03-18T16:19:46.604Z,4.32
2023-03-18T16:22:18.878Z,4.30
2023-03-18T16:24:51.283Z,3.90
2023-03-18T16:27:30.522Z,3.53
2023-03-18T16:30:04.069Z,6.35
2023-03-18T16:32:36.581Z,6.70
2023-03-18T16:35:14.126Z,7.60
2023-03-18T16:37:48.177Z,6.47
2023-03-18T16:40:24.479Z,6.35
2023-03-18T16:42:57.766Z,9.10
2023-03-18T16:45:32.967Z,6.55
2023-03-18T16:48:07.432Z,5.03
2023-03-18T16:50:41.982Z,5.10
2023-03-18T16:53:17.690Z,3.50
2023-03-18T16:55:53.156Z,5.75
2023-03-18T16:58:29.801Z,4.30
2023-03-18T17:01:04.134Z,5.57
2023-03-18T17:03:36.893Z,18.77
2023-03-18T17:06:09.481Z,3.83
2023-03-18T17:08:41.930Z,10.68
2023-03-18T17:11:17.854Z,7.75
2023-03-18T17:13:50.822Z,6.75
2023-03-18T17:16:25.214Z,10.57
2023-03-18T17:18:58.146Z,4.38
2023-03-18T17:21:31.717Z,3.88
2023-03-18T17:24:04.598Z,6.43
2023-03-18T17:26:36.982Z,5.38
2023-03-18T17:29:18.628Z,8.40
2023-03-18T17:31:51.710Z,6.20
2023-03-18T17:34:24.089Z,14.55
2023-03-18T17:36:56.518Z,28.65
2023-03-18T17:39:28.744Z,39.00
2023-03-18T17:42:01.500Z,165.13
2023-03-18T17:44:34.612Z,279.98
2023-03-18T17:47:08.956Z,109.10
2023-03-18T17:49:41.606Z,11.63
2023-03-18T17:52:18.659Z,16.05
2023-03-18T17:54:51.206Z,60.15
2023-03-18T17:57:23.628Z,6.75
2023-03-18T17:59:56.920Z,11.13
2023-03-18T18:02:29.884Z,11.00
2023-03-18T18:05:02.257Z,30.10
2023-03-18T18:07:35.688Z,15.70
2023-03-18T18:10:09.909Z,265.25
2023-03-18T18:12:44.134Z,14.38
2023-03-18T18:15:20.337Z,44.75
2023-03-18T18:17:53.884Z,15.98
2023-03-18T18:20:26.347Z,5.65
2023-03-18T18:23:00.383Z,4.65
2023-03-18T18:25:34.765Z,37.92
2023-03-18T18:28:17.162Z,8.30
2023-03-18T18:30:50.238Z,7.13
2023-03-18T18:33:22.872Z,12.73
2023-03-18T18:35:55.686Z,8.52
2023-03-18T18:38:28.370Z,7.00
2023-03-18T18:41:00.952Z,11.13
2023-03-18T18:43:33.346Z,4.00
2023-03-18T18:46:14.003Z,3.97
2023-03-18T18:48:48.176Z,5.63
2023-03-18T18:51:22.264Z,9.05
2023-03-18T18:53:55.330Z,8.00
2023-03-18T18:56:33.345Z,6.88
2023-03-18T18:59:17.971Z,5.30
2023-03-18T19:01:51.424Z,9.00
2023-03-18T19:04:24.170Z,6.32
2023-03-18T19:06:56.604Z,5.30
2023-03-18T19:09:29.445Z,5.53
2023-03-18T19:12:02.211Z,7.35
2023-03-18T19:14:34.444Z,6.85
2023-03-18T19:17:14.619Z,8.23
2023-03-18T19:19:47.961Z,8.50
2023-03-18T19:22:20.915Z,7.03
2023-03-18T19:24:53.362Z,8.65
2023-03-18T19:27:29.013Z,5.25
2023-03-18T19:30:04.706Z,7.07
2023-03-18T19:32:37.667Z,7.82
2023-03-18T19:35:12.984Z,7.07
2023-03-18T19:37:47.180Z,9.48
2023-03-18T19:40:23.020Z,6.60
2023-03-18T19:42:55.396Z,6.55
2023-03-18T19:45:28.426Z,8.85
2023-03-18T19:48:01.544Z,6.70
2023-03-18T19:50:33.892Z,7.20
2023-03-18T19:53:10.607Z,12.27
2023-03-18T19:55:44.555Z,6.45
2023-03-18T19:58:23.328Z,11.50
2023-03-18T20:00:55.800Z,14.83
2023-03-18T20:03:29.521Z,9.13
2023-03-18T20:06:02.206Z,11.13
2023-03-18T20:08:34.552Z,4.65
2023-03-18T20:11:12.232Z,24.70
2023-03-18T20:13:45.166Z,38.53
2023-03-18T20:16:18.759Z,36.92
2023-03-18T20:18:51.825Z,30.63
2023-03-18T20:21:28.955Z,17.88
2023-03-18T20:24:07.428Z,8.38
2023-03-18T20:26:39.904Z,9.40
2023-03-18T20:29:16.362Z,12.43
2023-03-18T20:31:48.781Z,26.45
2023-03-18T20:34:22.359Z,22.45
2023-03-18T20:36:54.722Z,48.00
2023-03-18T20:39:27.107Z,99.63
2023-03-18T20:41:59.463Z,43.78
2023-03-18T20:44:31.739Z,65.40
2023-03-18T20:47:04.150Z,49.67
2023-03-18T20:49:39.710Z,28.02
2023-03-18T20:52:25.218Z,20.88
2023-03-18T20:54:58.029Z,31.95
2023-03-18T20:57:30.430Z,33.88
2023-03-18T21:00:06.274Z,52.35
2023-03-18T21:02:38.539Z,27.98
2023-03-18T21:05:13.327Z,22.45
2023-03-18T21:07:47.270Z,27.35
2023-03-18T21:10:21.060Z,24.60
2023-03-18T21:12:53.861Z,25.88
2023-03-18T21:15:28.204Z,27.65
2023-03-18T21:18:01.018Z,38.50
2023-03-18T21:20:35.012Z,55.40
2023-03-18T21:23:17.178Z,50.33
2023-03-18T21:25:50.456Z,56.45
2023-03-18T21:28:24.770Z,59.92
2023-03-18T21:30:58.510Z,51.90
2023-03-18T21:33:33.066Z,59.53
2023-03-18T21:36:07.164Z,34.60
2023-03-18T21:38:39.572Z,33.90
2023-03-18T21:41:19.746Z,46.92
2023-03-18T21:43:52.053Z,38.90
2023-03-18T21:46:26.320Z,39.10
2023-03-18T21:48:58.602Z,35.42
2023-03-18T21:51:39.669Z,28.75
2023-03-18T21:54:17.487Z,35.00
2023-03-18T21:56:49.917Z,41.00
2023-03-18T21:59:22.545Z,37.58
2023-03-18T22:01:55.052Z,34.72
2023-03-18T22:04:27.337Z,42.40
2023-03-18T22:07:00.352Z,36.45
2023-03-18T22:09:33.366Z,31.05
2023-03-18T22:12:16.542Z,38.25
2023-03-18T22:14:48.960Z,55.65
2023-03-18T22:17:24.052Z,46.47
2023-03-18T22:20:00.277Z,60.65
2023-03-18T22:22:35.987Z,52.78
2023-03-18T22:25:24.058Z,59.95
2023-03-18T22:27:56.566Z,57.08
2023-03-18T22:30:31.478Z,54.70
2023-03-18T22:33:05.468Z,53.97
2023-03-18T22:35:37.919Z,67.18
2023-03-18T22:38:13.612Z,47.55
2023-03-18T22:40:47.534Z,65.60
2023-03-18T22:43:29.359Z,39.50
2023-03-18T22:46:03.530Z,34.95
2023-03-18T22:48:35.782Z,44.08
2023-03-18T22:51:10.683Z,33.38
2023-03-18T22:53:48.561Z,29.95
2023-03-18T22:56:21.966Z,34.03
2023-03-18T22:58:54.813Z,48.97
2023-03-18T23:01:31.038Z,38.53
2023-03-18T23:04:03.904Z,38.38
2023-03-18T23:06:36.430Z,39.53
2023-03-18T23:09:09.443Z,53.17
2023-03-18T23:11:41.748Z,65.30
2023-03-18T23:14:14.137Z,95.70
2023-03-18T23:16:46.446Z,65.57
2023-03-18T23:19:18.705Z,59.15
2023-03-18T23:21:50.978Z,45.78
2023-03-18T23:24:23.942Z,40.70
2023-03-18T23:26:56.291Z,43.67
2023-03-18T23:29:28.547Z,37.08
2023-03-18T23:32:01.084Z,28.45
2023-03-18T23:34:33.430Z,25.77
2023-03-18T23:37:05.806Z,32.47
2023-03-18T23:39:42.249Z,50.05
2023-03-18T23:42:16.112Z,38.53
2023-03-18T23:44:48.429Z,24.65
2023-03-18T23:47:20.931Z,23.33
2023-03-18T23:49:53.271Z,39.42
2023-03-18T23:52:25.560Z,57.95
2023-03-18T23:54:58.584Z,47.22
2023-03-18T23:57:30.880Z,55.30
